sensor_id;sensor_type;location;lat;lon;timestamp;P1;durP1;ratioP1;P2;durP2;ratioP2
1603;SDS011;795;49.296;11.348;2023-05-23T00:01:42;14.83;;;13.23;;
1603;SDS011;795;49.296;11.348;2023-05-23T00:04:10;14.37;;;12.97;;
1603;SDS011;795;49.296;11.348;2023-05-23T00:06:42;14.73;;;13.33;;
1603;SDS011;795;49.296;11.348;2023-05-23T00:09:15;14.83;;;13.33;;
1603;SDS011;795;49.296;11.348;2023-05-23T00:11:42;16.40;;;14.97;;
1603;SDS011;795;49.296;11.348;2023-05-23T00:14:11;16.87;;;13.77;;
1603;SDS011;795;49.296;11.348;2023-05-23T00:16:40;18.90;;;13.43;;
1603;SDS011;795;49.296;11.348;2023-05-23T00:19:10;16.23;;;13.40;;
1603;SDS011;795;49.296;11.348;2023-05-23T00:21:41;14.63;;;13.13;;
1603;SDS011;795;49.296;11.348;2023-05-23T00:24:16;14.63;;;13.20;;
1603;SDS011;795;49.296;11.348;2023-05-23T00:26:45;14.90;;;13.40;;
1603;SDS011;795;49.296;11.348;2023-05-23T00:29:13;17.10;;;15.27;;
1603;SDS011;795;49.296;11.348;2023-05-23T00:31:42;16.30;;;14.70;;
1603;SDS011;795;49.296;11.348;2023-05-23T00:34:14;14.60;;;13.10;;
1603;SDS011;795;49.296;11.348;2023-05-23T00:36:44;14.83;;;12.97;;
1603;SDS011;795;49.296;11.348;2023-05-23T00:39:13;15.70;;;14.10;;
1603;SDS011;795;49.296;11.348;2023-05-23T00:41:45;16.57;;;15.07;;
1603;SDS011;795;49.296;11.348;2023-05-23T00:44:18;15.57;;;13.97;;
1603;SDS011;795;49.296;11.348;2023-05-23T00:46:48;15.87;;;14.37;;
1603;SDS011;795;49.296;11.348;2023-05-23T00:49:22;16.23;;;14.73;;
1603;SDS011;795;49.296;11.348;2023-05-23T00:51:50;14.50;;;13.20;;
1603;SDS011;795;49.296;11.348;2023-05-23T00:54:23;15.50;;;14.13;;
1603;SDS011;795;49.296;11.348;2023-05-23T00:56:58;16.60;;;15.00;;
1603;SDS011;795;49.296;11.348;2023-05-23T00:59:26;15.87;;;14.37;;
1603;SDS011;795;49.296;11.348;2023-05-23T01:01:53;16.70;;;14.00;;
1603;SDS011;795;49.296;11.348;2023-05-23T01:04:23;16.20;;;14.60;;
1603;SDS011;795;49.296;11.348;2023-05-23T01:06:54;15.20;;;13.80;;
1603;SDS011;795;49.296;11.348;2023-05-23T01:09:22;16.30;;;14.70;;
1603;SDS011;795;49.296;11.348;2023-05-23T01:12:00;16.13;;;14.47;;
1603;SDS011;795;49.296;11.348;2023-05-23T01:15:07;15.17;;;13.67;;
1603;SDS011;795;49.296;11.348;2023-05-23T01:17:51;16.23;;;14.63;;
1603;SDS011;795;49.296;11.348;2023-05-23T01:20:48;15.97;;;14.37;;
1603;SDS011;795;49.296;11.348;2023-05-23T01:23:24;16.17;;;14.60;;
1603;SDS011;795;49.296;11.348;2023-05-23T01:29:34;16.50;;;14.90;;
1603;SDS011;795;49.296;11.348;2023-05-23T01:32:11;16.60;;;14.90;;
1603;SDS011;795;49.296;11.348;2023-05-23T01:34:42;16.27;;;13.90;;
1603;SDS011;795;49.296;11.348;2023-05-23T01:37:12;20.17;;;15.40;;
1603;SDS011;795;49.296;11.348;2023-05-23T01:39:44;17.03;;;15.27;;
1603;SDS011;795;49.296;11.348;2023-05-23T01:42:12;16.87;;;15.27;;
1603;SDS011;795;49.296;11.348;2023-05-23T01:44:40;16.90;;;15.10;;
1603;SDS011;795;49.296;11.348;2023-05-23T01:47:10;17.40;;;15.50;;
1603;SDS011;795;49.296;11.348;2023-05-23T01:49:40;15.90;;;14.40;;
1603;SDS011;795;49.296;11.348;2023-05-23T01:52:09;16.50;;;14.90;;
1603;SDS011;795;49.296;11.348;2023-05-23T01:54:38;15.37;;;13.87;;
1603;SDS011;795;49.296;11.348;2023-05-23T01:57:07;16.43;;;13.50;;
1603;SDS011;795;49.296;11.348;2023-05-23T01:59:36;15.47;;;13.90;;
1603;SDS011;795;49.296;11.348;2023-05-23T02:02:04;17.30;;;15.60;;
1603;SDS011;795;49.296;11.348;2023-05-23T02:04:31;16.37;;;14.70;;
1603;SDS011;795;49.296;11.348;2023-05-23T02:06:58;16.30;;;14.73;;
1603;SDS011;795;49.296;11.348;2023-05-23T02:09:26;16.20;;;14.60;;
1603;SDS011;795;49.296;11.348;2023-05-23T02:11:53;16.90;;;15.10;;
1603;SDS011;795;49.296;11.348;2023-05-23T02:14:20;19.13;;;15.50;;
1603;SDS011;795;49.296;11.348;2023-05-23T02:16:47;16.60;;;15.00;;
1603;SDS011;795;49.296;11.348;2023-05-23T02:19:14;17.60;;;15.00;;
1603;SDS011;795;49.296;11.348;2023-05-23T02:21:41;17.30;;;15.70;;
1603;SDS011;795;49.296;11.348;2023-05-23T02:24:08;17.03;;;15.53;;
1603;SDS011;795;49.296;11.348;2023-05-23T02:26:35;17.10;;;15.40;;
1603;SDS011;795;49.296;11.348;2023-05-23T02:29:03;16.90;;;15.30;;
1603;SDS011;795;49.296;11.348;2023-05-23T02:31:30;16.53;;;14.93;;
1603;SDS011;795;49.296;11.348;2023-05-23T02:33:57;15.27;;;13.77;;
1603;SDS011;795;49.296;11.348;2023-05-23T02:36:24;16.77;;;15.03;;
1603;SDS011;795;49.296;11.348;2023-05-23T02:38:51;16.73;;;15.13;;
1603;SDS011;795;49.296;11.348;2023-05-23T02:41:18;17.73;;;16.03;;
1603;SDS011;795;49.296;11.348;2023-05-23T02:43:46;17.20;;;14.80;;
1603;SDS011;795;49.296;11.348;2023-05-23T02:46:13;16.63;;;15.03;;
1603;SDS011;795;49.296;11.348;2023-05-23T02:48:40;17.47;;;14.97;;
1603;SDS011;795;49.296;11.348;2023-05-23T02:51:07;18.30;;;16.60;;
1603;SDS011;795;49.296;11.348;2023-05-23T02:53:34;18.10;;;16.30;;
1603;SDS011;795;49.296;11.348;2023-05-23T02:56:01;17.73;;;16.13;;
1603;SDS011;795;49.296;11.348;2023-05-23T02:58:28;17.33;;;15.53;;
1603;SDS011;795;49.296;11.348;2023-05-23T03:00:55;17.77;;;16.07;;
1603;SDS011;795;49.296;11.348;2023-05-23T03:03:23;17.60;;;15.90;;
1603;SDS011;795;49.296;11.348;2023-05-23T03:05:50;18.80;;;16.23;;
1603;SDS011;795;49.296;11.348;2023-05-23T03:08:17;17.97;;;16.17;;
1603;SDS011;795;49.296;11.348;2023-05-23T03:10:44;18.03;;;15.90;;
1603;SDS011;795;49.296;11.348;2023-05-23T03:13:11;17.30;;;15.60;;
1603;SDS011;795;49.296;11.348;2023-05-23T03:15:38;19.03;;;17.03;;
1603;SDS011;795;49.296;11.348;2023-05-23T03:18:05;17.07;;;15.47;;
1603;SDS011;795;49.296;11.348;2023-05-23T03:20:32;18.57;;;15.90;;
1603;SDS011;795;49.296;11.348;2023-05-23T03:22:59;16.30;;;14.70;;
1603;SDS011;795;49.296;11.348;2023-05-23T03:25:26;21.77;;;17.00;;
1603;SDS011;795;49.296;11.348;2023-05-23T03:27:53;17.53;;;15.67;;
1603;SDS011;795;49.296;11.348;2023-05-23T03:30:21;16.67;;;15.07;;
1603;SDS011;795;49.296;11.348;2023-05-23T03:32:48;17.70;;;16.03;;
1603;SDS011;795;49.296;11.348;2023-05-23T03:35:15;16.53;;;14.83;;
1603;SDS011;795;49.296;11.348;2023-05-23T03:37:42;17.70;;;15.43;;
1603;SDS011;795;49.296;11.348;2023-05-23T03:40:09;18.60;;;16.80;;
1603;SDS011;795;49.296;11.348;2023-05-23T03:42:37;18.23;;;16.33;;
1603;SDS011;795;49.296;11.348;2023-05-23T03:45:05;17.10;;;15.37;;
1603;SDS011;795;49.296;11.348;2023-05-23T03:47:32;17.67;;;16.07;;
1603;SDS011;795;49.296;11.348;2023-05-23T03:49:59;19.00;;;17.30;;
1603;SDS011;795;49.296;11.348;2023-05-23T03:52:26;17.83;;;16.13;;
1603;SDS011;795;49.296;11.348;2023-05-23T03:54:53;17.87;;;16.10;;
1603;SDS011;795;49.296;11.348;2023-05-23T03:57:20;22.50;;;15.90;;
1603;SDS011;795;49.296;11.348;2023-05-23T03:59:47;18.73;;;16.83;;
1603;SDS011;795;49.296;11.348;2023-05-23T04:02:15;18.03;;;15.87;;
1603;SDS011;795;49.296;11.348;2023-05-23T04:04:42;19.47;;;17.47;;
1603;SDS011;795;49.296;11.348;2023-05-23T04:07:09;18.03;;;16.10;;
1603;SDS011;795;49.296;11.348;2023-05-23T04:09:36;18.70;;;16.80;;
1603;SDS011;795;49.296;11.348;2023-05-23T04:12:03;18.37;;;16.37;;
1603;SDS011;795;49.296;11.348;2023-05-23T04:14:31;18.37;;;16.57;;
1603;SDS011;795;49.296;11.348;2023-05-23T04:16:58;18.73;;;16.23;;
1603;SDS011;795;49.296;11.348;2023-05-23T04:19:26;16.97;;;15.17;;
1603;SDS011;795;49.296;11.348;2023-05-23T04:21:53;16.37;;;14.83;;
1603;SDS011;795;49.296;11.348;2023-05-23T04:24:20;17.13;;;15.43;;
1603;SDS011;795;49.296;11.348;2023-05-23T04:26:47;17.60;;;15.80;;
1603;SDS011;795;49.296;11.348;2023-05-23T04:29:14;16.93;;;15.17;;
1603;SDS011;795;49.296;11.348;2023-05-23T04:31:41;15.33;;;13.30;;
1603;SDS011;795;49.296;11.348;2023-05-23T04:34:11;17.13;;;15.53;;
1603;SDS011;795;49.296;11.348;2023-05-23T04:36:38;17.37;;;15.27;;
1603;SDS011;795;49.296;11.348;2023-05-23T04:39:05;17.33;;;15.60;;
1603;SDS011;795;49.296;11.348;2023-05-23T04:41:32;17.13;;;15.40;;
1603;SDS011;795;49.296;11.348;2023-05-23T04:43:59;17.13;;;14.60;;
1603;SDS011;795;49.296;11.348;2023-05-23T04:46:26;16.67;;;15.07;;
1603;SDS011;795;49.296;11.348;2023-05-23T04:48:53;16.33;;;14.10;;
1603;SDS011;795;49.296;11.348;2023-05-23T04:51:21;16.13;;;14.27;;
1603;SDS011;795;49.296;11.348;2023-05-23T04:53:49;17.03;;;14.90;;
1603;SDS011;795;49.296;11.348;2023-05-23T04:56:17;16.33;;;14.63;;
1603;SDS011;795;49.296;11.348;2023-05-23T04:58:47;15.53;;;13.93;;
1603;SDS011;795;49.296;11.348;2023-05-23T05:01:14;23.00;;;13.80;;
1603;SDS011;795;49.296;11.348;2023-05-23T05:03:41;14.97;;;13.47;;
1603;SDS011;795;49.296;11.348;2023-05-23T05:06:08;15.73;;;14.03;;
1603;SDS011;795;49.296;11.348;2023-05-23T05:08:35;14.33;;;12.87;;
1603;SDS011;795;49.296;11.348;2023-05-23T05:11:02;14.67;;;13.30;;
1603;SDS011;795;49.296;11.348;2023-05-23T05:13:29;14.63;;;13.20;;
1603;SDS011;795;49.296;11.348;2023-05-23T05:15:56;14.63;;;13.23;;
1603;SDS011;795;49.296;11.348;2023-05-23T05:18:27;15.37;;;12.77;;
1603;SDS011;795;49.296;11.348;2023-05-23T05:20:55;13.93;;;12.60;;
1603;SDS011;795;49.296;11.348;2023-05-23T05:23:24;14.10;;;12.70;;
1603;SDS011;795;49.296;11.348;2023-05-23T05:25:55;16.10;;;13.00;;
1603;SDS011;795;49.296;11.348;2023-05-23T05:28:22;16.17;;;12.63;;
1603;SDS011;795;49.296;11.348;2023-05-23T05:30:49;17.67;;;13.77;;
1603;SDS011;795;49.296;11.348;2023-05-23T05:33:20;16.33;;;13.90;;
1603;SDS011;795;49.296;11.348;2023-05-23T05:35:50;14.70;;;13.30;;
1603;SDS011;795;49.296;11.348;2023-05-23T05:38:18;15.37;;;13.87;;
1603;SDS011;795;49.296;11.348;2023-05-23T05:40:45;15.23;;;13.47;;
1603;SDS011;795;49.296;11.348;2023-05-23T05:43:12;14.20;;;12.13;;
1603;SDS011;795;49.296;11.348;2023-05-23T05:45:39;16.80;;;11.57;;
1603;SDS011;795;49.296;11.348;2023-05-23T05:48:06;13.57;;;12.17;;
1603;SDS011;795;49.296;11.348;2023-05-23T05:50:33;14.20;;;12.80;;
1603;SDS011;795;49.296;11.348;2023-05-23T05:53:00;15.60;;;11.67;;
1603;SDS011;795;49.296;11.348;2023-05-23T05:55:27;12.57;;;11.27;;
1603;SDS011;795;49.296;11.348;2023-05-23T05:57:55;13.20;;;11.37;;
1603;SDS011;795;49.296;11.348;2023-05-23T06:00:21;12.20;;;11.10;;
1603;SDS011;795;49.296;11.348;2023-05-23T06:02:49;13.50;;;12.10;;
1603;SDS011;795;49.296;11.348;2023-05-23T06:05:22;13.77;;;10.60;;
1603;SDS011;795;49.296;11.348;2023-05-23T06:07:50;14.30;;;11.40;;
1603;SDS011;795;49.296;11.348;2023-05-23T06:10:17;11.27;;;10.30;;
1603;SDS011;795;49.296;11.348;2023-05-23T06:12:44;11.60;;;10.50;;
1603;SDS011;795;49.296;11.348;2023-05-23T06:15:11;11.87;;;10.77;;
1603;SDS011;795;49.296;11.348;2023-05-23T06:17:39;15.57;;;10.50;;
1603;SDS011;795;49.296;11.348;2023-05-23T06:20:07;11.37;;;10.03;;
1603;SDS011;795;49.296;11.348;2023-05-23T06:22:36;13.37;;;12.07;;
1603;SDS011;795;49.296;11.348;2023-05-23T06:25:03;11.83;;;10.43;;
1603;SDS011;795;49.296;11.348;2023-05-23T06:27:32;10.67;;;9.67;;
1603;SDS011;795;49.296;11.348;2023-05-23T06:29:59;12.20;;;10.93;;
1603;SDS011;795;49.296;11.348;2023-05-23T06:32:26;11.50;;;10.30;;
1603;SDS011;795;49.296;11.348;2023-05-23T06:34:53;12.20;;;11.00;;
1603;SDS011;795;49.296;11.348;2023-05-23T06:37:20;11.77;;;10.67;;
1603;SDS011;795;49.296;11.348;2023-05-23T06:39:47;12.60;;;11.30;;
1603;SDS011;795;49.296;11.348;2023-05-23T06:42:14;12.67;;;10.93;;
1603;SDS011;795;49.296;11.348;2023-05-23T06:44:41;12.10;;;10.90;;
1603;SDS011;795;49.296;11.348;2023-05-23T06:47:08;14.27;;;12.10;;
1603;SDS011;795;49.296;11.348;2023-05-23T06:49:35;14.00;;;12.37;;
1603;SDS011;795;49.296;11.348;2023-05-23T06:52:02;14.77;;;13.37;;
1603;SDS011;795;49.296;11.348;2023-05-23T06:54:29;13.00;;;11.70;;
1603;SDS011;795;49.296;11.348;2023-05-23T06:56:56;13.20;;;11.80;;
1603;SDS011;795;49.296;11.348;2023-05-23T06:59:23;12.73;;;10.87;;
1603;SDS011;795;49.296;11.348;2023-05-23T07:01:50;12.20;;;11.10;;
1603;SDS011;795;49.296;11.348;2023-05-23T07:04:17;11.67;;;10.63;;
1603;SDS011;795;49.296;11.348;2023-05-23T07:06:44;13.57;;;11.30;;
1603;SDS011;795;49.296;11.348;2023-05-23T07:09:11;14.67;;;12.27;;
1603;SDS011;795;49.296;11.348;2023-05-23T07:11:38;12.30;;;11.20;;
1603;SDS011;795;49.296;11.348;2023-05-23T07:14:06;11.20;;;10.17;;
1603;SDS011;795;49.296;11.348;2023-05-23T07:16:33;12.50;;;11.17;;
1603;SDS011;795;49.296;11.348;2023-05-23T07:19:00;13.43;;;12.13;;
1603;SDS011;795;49.296;11.348;2023-05-23T07:21:28;14.73;;;11.83;;
1603;SDS011;795;49.296;11.348;2023-05-23T07:23:56;12.67;;;11.50;;
1603;SDS011;795;49.296;11.348;2023-05-23T07:26:23;12.67;;;11.43;;
1603;SDS011;795;49.296;11.348;2023-05-23T07:28:49;11.20;;;10.10;;
1603;SDS011;795;49.296;11.348;2023-05-23T07:31:17;11.00;;;10.10;;
1603;SDS011;795;49.296;11.348;2023-05-23T07:33:44;13.23;;;11.93;;
1603;SDS011;795;49.296;11.348;2023-05-23T07:36:11;11.70;;;10.60;;
1603;SDS011;795;49.296;11.348;2023-05-23T07:38:38;12.80;;;11.47;;
1603;SDS011;795;49.296;11.348;2023-05-23T07:41:05;14.53;;;11.33;;
1603;SDS011;795;49.296;11.348;2023-05-23T07:43:37;13.63;;;12.40;;
1603;SDS011;795;49.296;11.348;2023-05-23T07:46:06;13.23;;;11.83;;
1603;SDS011;795;49.296;11.348;2023-05-23T07:48:33;11.50;;;10.40;;
1603;SDS011;795;49.296;11.348;2023-05-23T07:51:00;12.40;;;11.20;;
1603;SDS011;795;49.296;11.348;2023-05-23T07:53:26;13.00;;;11.70;;
1603;SDS011;795;49.296;11.348;2023-05-23T07:55:53;11.73;;;10.63;;
1603;SDS011;795;49.296;11.348;2023-05-23T07:58:21;13.80;;;10.97;;
1603;SDS011;795;49.296;11.348;2023-05-23T08:03:36;12.10;;;10.40;;
1603;SDS011;795;49.296;11.348;2023-05-23T08:06:03;12.83;;;11.67;;
1603;SDS011;795;49.296;11.348;2023-05-23T08:08:32;12.37;;;11.13;;
1603;SDS011;795;49.296;11.348;2023-05-23T08:10:59;13.30;;;12.00;;
1603;SDS011;795;49.296;11.348;2023-05-23T08:13:26;12.40;;;11.20;;
1603;SDS011;795;49.296;11.348;2023-05-23T08:15:53;12.60;;;11.40;;
1603;SDS011;795;49.296;11.348;2023-05-23T08:18:20;11.73;;;10.60;;
1603;SDS011;795;49.296;11.348;2023-05-23T08:20:48;11.63;;;10.53;;
1603;SDS011;795;49.296;11.348;2023-05-23T08:23:14;13.07;;;11.77;;
1603;SDS011;795;49.296;11.348;2023-05-23T08:25:42;11.77;;;10.17;;
1603;SDS011;795;49.296;11.348;2023-05-23T08:28:09;14.27;;;12.77;;
1603;SDS011;795;49.296;11.348;2023-05-23T08:30:36;13.87;;;12.50;;
1603;SDS011;795;49.296;11.348;2023-05-23T08:33:04;12.50;;;11.30;;
1603;SDS011;795;49.296;11.348;2023-05-23T08:35:32;14.50;;;12.43;;
1603;SDS011;795;49.296;11.348;2023-05-23T08:38:03;12.73;;;11.40;;
1603;SDS011;795;49.296;11.348;2023-05-23T08:40:35;13.90;;;12.40;;
1603;SDS011;795;49.296;11.348;2023-05-23T08:43:05;13.60;;;12.30;;
1603;SDS011;795;49.296;11.348;2023-05-23T08:45:32;13.60;;;12.23;;
1603;SDS011;795;49.296;11.348;2023-05-23T08:48:00;16.27;;;12.17;;
1603;SDS011;795;49.296;11.348;2023-05-23T08:50:35;14.30;;;12.73;;
1603;SDS011;795;49.296;11.348;2023-05-23T08:53:08;12.73;;;11.43;;
1603;SDS011;795;49.296;11.348;2023-05-23T08:55:36;12.93;;;11.53;;
1603;SDS011;795;49.296;11.348;2023-05-23T08:58:03;12.30;;;11.10;;
1603;SDS011;795;49.296;11.348;2023-05-23T09:00:31;12.73;;;10.47;;
1603;SDS011;795;49.296;11.348;2023-05-23T09:03:00;11.50;;;10.33;;
1603;SDS011;795;49.296;11.348;2023-05-23T09:05:27;13.40;;;11.67;;
1603;SDS011;795;49.296;11.348;2023-05-23T09:07:54;14.33;;;11.83;;
1603;SDS011;795;49.296;11.348;2023-05-23T09:10:21;11.73;;;10.73;;
1603;SDS011;795;49.296;11.348;2023-05-23T09:12:48;13.10;;;9.63;;
1603;SDS011;795;49.296;11.348;2023-05-23T09:15:15;10.40;;;9.50;;
1603;SDS011;795;49.296;11.348;2023-05-23T09:17:43;10.93;;;9.83;;
1603;SDS011;795;49.296;11.348;2023-05-23T09:20:12;12.17;;;10.87;;
1603;SDS011;795;49.296;11.348;2023-05-23T09:22:46;11.50;;;10.60;;
1603;SDS011;795;49.296;11.348;2023-05-23T09:25:14;11.33;;;10.13;;
1603;SDS011;795;49.296;11.348;2023-05-23T09:27:41;13.73;;;10.73;;
1603;SDS011;795;49.296;11.348;2023-05-23T09:30:12;10.70;;;9.70;;
1603;SDS011;795;49.296;11.348;2023-05-23T09:32:40;13.97;;;11.50;;
1603;SDS011;795;49.296;11.348;2023-05-23T09:35:08;11.30;;;10.30;;
1603;SDS011;795;49.296;11.348;2023-05-23T09:37:41;10.83;;;9.83;;
1603;SDS011;795;49.296;11.348;2023-05-23T09:40:14;11.47;;;10.37;;
1603;SDS011;795;49.296;11.348;2023-05-23T09:42:42;9.40;;;8.50;;
1603;SDS011;795;49.296;11.348;2023-05-23T09:45:13;10.43;;;9.53;;
1603;SDS011;795;49.296;11.348;2023-05-23T09:47:51;12.27;;;8.30;;
1603;SDS011;795;49.296;11.348;2023-05-23T09:50:19;13.50;;;8.17;;
1603;SDS011;795;49.296;11.348;2023-05-23T09:52:48;8.87;;;8.07;;
1603;SDS011;795;49.296;11.348;2023-05-23T09:55:16;10.10;;;9.10;;
1603;SDS011;795;49.296;11.348;2023-05-23T09:57:44;9.80;;;8.80;;
1603;SDS011;795;49.296;11.348;2023-05-23T10:00:22;9.50;;;8.60;;
1603;SDS011;795;49.296;11.348;2023-05-23T10:03:03;11.20;;;9.93;;
1603;SDS011;795;49.296;11.348;2023-05-23T10:11:26;13.10;;;9.67;;
1603;SDS011;795;49.296;11.348;2023-05-23T10:14:06;9.90;;;8.73;;
1603;SDS011;795;49.296;11.348;2023-05-23T10:22:13;9.50;;;8.70;;
1603;SDS011;795;49.296;11.348;2023-05-23T10:24:44;9.63;;;8.73;;
1603;SDS011;795;49.296;11.348;2023-05-23T10:27:11;10.07;;;9.07;;
1603;SDS011;795;49.296;11.348;2023-05-23T10:29:39;9.43;;;8.60;;
1603;SDS011;795;49.296;11.348;2023-05-23T10:32:07;10.47;;;9.47;;
1603;SDS011;795;49.296;11.348;2023-05-23T10:34:45;10.27;;;9.43;;
1603;SDS011;795;49.296;11.348;2023-05-23T10:38:01;9.90;;;8.57;;
1603;SDS011;795;49.296;11.348;2023-05-23T10:43:30;11.77;;;10.57;;
1603;SDS011;795;49.296;11.348;2023-05-23T10:46:22;9.80;;;9.00;;
1603;SDS011;795;49.296;11.348;2023-05-23T10:49:40;9.87;;;9.07;;
1603;SDS011;795;49.296;11.348;2023-05-23T10:52:13;9.07;;;8.27;;
1603;SDS011;795;49.296;11.348;2023-05-23T10:54:47;8.77;;;8.07;;
1603;SDS011;795;49.296;11.348;2023-05-23T10:57:22;9.93;;;9.07;;
1603;SDS011;795;49.296;11.348;2023-05-23T10:59:54;8.30;;;7.57;;
1603;SDS011;795;49.296;11.348;2023-05-23T11:02:26;12.87;;;8.37;;
1603;SDS011;795;49.296;11.348;2023-05-23T11:08:09;11.30;;;7.60;;
1603;SDS011;795;49.296;11.348;2023-05-23T11:10:52;9.33;;;8.03;;
1603;SDS011;795;49.296;11.348;2023-05-23T11:13:52;8.33;;;7.60;;
1603;SDS011;795;49.296;11.348;2023-05-23T11:16:24;8.60;;;7.80;;
1603;SDS011;795;49.296;11.348;2023-05-23T11:21:52;7.97;;;7.20;;
1603;SDS011;795;49.296;11.348;2023-05-23T11:24:22;7.53;;;6.83;;
1603;SDS011;795;49.296;11.348;2023-05-23T11:27:10;7.37;;;6.87;;
1603;SDS011;795;49.296;11.348;2023-05-23T11:29:37;7.90;;;7.20;;
1603;SDS011;795;49.296;11.348;2023-05-23T11:32:11;8.27;;;6.77;;
1603;SDS011;795;49.296;11.348;2023-05-23T11:34:42;8.43;;;7.73;;
1603;SDS011;795;49.296;11.348;2023-05-23T11:37:09;17.63;;;7.03;;
1603;SDS011;795;49.296;11.348;2023-05-23T11:39:37;7.27;;;6.27;;
1603;SDS011;795;49.296;11.348;2023-05-23T11:42:05;9.50;;;7.23;;
1603;SDS011;795;49.296;11.348;2023-05-23T11:44:32;7.90;;;7.17;;
1603;SDS011;795;49.296;11.348;2023-05-23T11:49:35;6.47;;;5.87;;
1603;SDS011;795;49.296;11.348;2023-05-23T11:52:05;7.27;;;6.57;;
1603;SDS011;795;49.296;11.348;2023-05-23T11:54:32;7.03;;;6.43;;
1603;SDS011;795;49.296;11.348;2023-05-23T11:57:00;6.83;;;6.33;;
1603;SDS011;795;49.296;11.348;2023-05-23T11:59:28;7.43;;;6.10;;
1603;SDS011;795;49.296;11.348;2023-05-23T12:01:55;6.50;;;5.60;;
1603;SDS011;795;49.296;11.348;2023-05-23T12:04:23;6.70;;;6.10;;
1603;SDS011;795;49.296;11.348;2023-05-23T12:06:52;6.60;;;6.00;;
1603;SDS011;795;49.296;11.348;2023-05-23T12:09:19;6.07;;;5.57;;
1603;SDS011;795;49.296;11.348;2023-05-23T12:11:47;6.00;;;5.50;;
1603;SDS011;795;49.296;11.348;2023-05-23T12:14:15;5.83;;;5.37;;
1603;SDS011;795;49.296;11.348;2023-05-23T12:16:43;6.20;;;5.70;;
1603;SDS011;795;49.296;11.348;2023-05-23T12:19:12;6.27;;;5.80;;
1603;SDS011;795;49.296;11.348;2023-05-23T12:21:46;11.40;;;5.00;;
1603;SDS011;795;49.296;11.348;2023-05-23T12:26:51;5.70;;;4.40;;
1603;SDS011;795;49.296;11.348;2023-05-23T12:29:28;5.67;;;5.23;;
1603;SDS011;795;49.296;11.348;2023-05-23T12:32:01;5.40;;;5.00;;
1603;SDS011;795;49.296;11.348;2023-05-23T12:34:32;5.57;;;5.17;;
1603;SDS011;795;49.296;11.348;2023-05-23T12:36:59;4.67;;;4.23;;
1603;SDS011;795;49.296;11.348;2023-05-23T12:39:32;4.93;;;4.50;;
1603;SDS011;795;49.296;11.348;2023-05-23T12:42:07;5.10;;;4.70;;
1603;SDS011;795;49.296;11.348;2023-05-23T12:44:35;7.53;;;4.43;;
1603;SDS011;795;49.296;11.348;2023-05-23T12:47:02;6.30;;;4.30;;
1603;SDS011;795;49.296;11.348;2023-05-23T12:49:29;6.03;;;4.03;;
1603;SDS011;795;49.296;11.348;2023-05-23T12:51:57;4.60;;;3.60;;
1603;SDS011;795;49.296;11.348;2023-05-23T12:54:24;4.70;;;4.30;;
1603;SDS011;795;49.296;11.348;2023-05-23T12:56:51;4.40;;;4.00;;
1603;SDS011;795;49.296;11.348;2023-05-23T12:59:18;3.93;;;3.63;;
1603;SDS011;795;49.296;11.348;2023-05-23T13:01:45;4.10;;;3.80;;
1603;SDS011;795;49.296;11.348;2023-05-23T13:04:12;4.23;;;3.53;;
1603;SDS011;795;49.296;11.348;2023-05-23T13:06:39;4.83;;;4.33;;
1603;SDS011;795;49.296;11.348;2023-05-23T13:09:06;2.87;;;2.67;;
1603;SDS011;795;49.296;11.348;2023-05-23T13:11:34;3.67;;;3.27;;
1603;SDS011;795;49.296;11.348;2023-05-23T13:14:01;6.57;;;3.00;;
1603;SDS011;795;49.296;11.348;2023-05-23T13:16:28;3.53;;;3.10;;
1603;SDS011;795;49.296;11.348;2023-05-23T13:18:56;3.93;;;3.63;;
1603;SDS011;795;49.296;11.348;2023-05-23T13:21:23;3.63;;;3.33;;
1603;SDS011;795;49.296;11.348;2023-05-23T13:23:50;2.97;;;2.63;;
1603;SDS011;795;49.296;11.348;2023-05-23T13:26:17;3.77;;;3.47;;
1603;SDS011;795;49.296;11.348;2023-05-23T13:28:44;3.53;;;3.23;;
1603;SDS011;795;49.296;11.348;2023-05-23T13:31:11;4.30;;;3.00;;
1603;SDS011;795;49.296;11.348;2023-05-23T13:33:38;4.50;;;3.50;;
1603;SDS011;795;49.296;11.348;2023-05-23T13:36:05;4.70;;;3.30;;
1603;SDS011;795;49.296;11.348;2023-05-23T13:38:32;3.40;;;2.90;;
1603;SDS011;795;49.296;11.348;2023-05-23T13:40:59;3.47;;;3.17;;
1603;SDS011;795;49.296;11.348;2023-05-23T13:43:26;3.30;;;3.10;;
1603;SDS011;795;49.296;11.348;2023-05-23T13:45:53;3.53;;;3.23;;
1603;SDS011;795;49.296;11.348;2023-05-23T13:48:20;3.80;;;3.30;;
1603;SDS011;795;49.296;11.348;2023-05-23T13:50:47;3.33;;;3.03;;
1603;SDS011;795;49.296;11.348;2023-05-23T13:53:15;3.67;;;3.40;;
1603;SDS011;795;49.296;11.348;2023-05-23T13:55:42;8.67;;;3.87;;
1603;SDS011;795;49.296;11.348;2023-05-23T13:58:12;4.30;;;3.23;;
1603;SDS011;795;49.296;11.348;2023-05-23T14:00:39;3.80;;;3.03;;
1603;SDS011;795;49.296;11.348;2023-05-23T14:03:07;4.13;;;2.90;;
1603;SDS011;795;49.296;11.348;2023-05-23T14:05:34;3.40;;;3.20;;
1603;SDS011;795;49.296;11.348;2023-05-23T14:08:02;3.47;;;3.17;;
1603;SDS011;795;49.296;11.348;2023-05-23T14:10:29;4.57;;;2.67;;
1603;SDS011;795;49.296;11.348;2023-05-23T14:12:58;3.10;;;2.90;;
1603;SDS011;795;49.296;11.348;2023-05-23T14:15:25;3.63;;;3.33;;
1603;SDS011;795;49.296;11.348;2023-05-23T14:17:53;3.93;;;3.63;;
1603;SDS011;795;49.296;11.348;2023-05-23T14:20:21;4.23;;;3.83;;
1603;SDS011;795;49.296;11.348;2023-05-23T14:22:49;3.60;;;3.30;;
1603;SDS011;795;49.296;11.348;2023-05-23T14:25:17;3.70;;;3.30;;
1603;SDS011;795;49.296;11.348;2023-05-23T14:27:44;3.93;;;3.63;;
1603;SDS011;795;49.296;11.348;2023-05-23T14:30:11;3.80;;;3.20;;
1603;SDS011;795;49.296;11.348;2023-05-23T14:32:38;3.37;;;3.07;;
1603;SDS011;795;49.296;11.348;2023-05-23T14:35:07;4.53;;;3.97;;
1603;SDS011;795;49.296;11.348;2023-05-23T14:37:37;4.00;;;3.60;;
1603;SDS011;795;49.296;11.348;2023-05-23T14:40:05;7.53;;;3.80;;
1603;SDS011;795;49.296;11.348;2023-05-23T14:42:35;3.50;;;3.20;;
1603;SDS011;795;49.296;11.348;2023-05-23T14:45:02;5.80;;;3.47;;
1603;SDS011;795;49.296;11.348;2023-05-23T14:47:30;3.70;;;3.40;;
1603;SDS011;795;49.296;11.348;2023-05-23T14:49:57;2.67;;;2.47;;
1603;SDS011;795;49.296;11.348;2023-05-23T14:52:25;3.13;;;2.83;;
1603;SDS011;795;49.296;11.348;2023-05-23T14:54:52;3.57;;;3.27;;
1603;SDS011;795;49.296;11.348;2023-05-23T14:57:19;3.30;;;2.87;;
1603;SDS011;795;49.296;11.348;2023-05-23T14:59:46;4.80;;;3.80;;
1603;SDS011;795;49.296;11.348;2023-05-23T15:02:13;11.07;;;3.63;;
1603;SDS011;795;49.296;11.348;2023-05-23T15:04:41;3.43;;;2.90;;
1603;SDS011;795;49.296;11.348;2023-05-23T15:07:08;4.07;;;3.30;;
1603;SDS011;795;49.296;11.348;2023-05-23T15:09:35;3.83;;;3.40;;
1603;SDS011;795;49.296;11.348;2023-05-23T15:12:02;4.43;;;3.20;;
1603;SDS011;795;49.296;11.348;2023-05-23T15:14:32;5.50;;;3.30;;
1603;SDS011;795;49.296;11.348;2023-05-23T15:16:59;3.60;;;3.07;;
1603;SDS011;795;49.296;11.348;2023-05-23T15:19:33;3.20;;;2.80;;
1603;SDS011;795;49.296;11.348;2023-05-23T15:22:02;3.80;;;3.50;;
1603;SDS011;795;49.296;11.348;2023-05-23T15:24:30;3.50;;;3.17;;
1603;SDS011;795;49.296;11.348;2023-05-23T15:27:00;3.20;;;2.93;;
1603;SDS011;795;49.296;11.348;2023-05-23T15:29:45;3.60;;;3.30;;
1603;SDS011;795;49.296;11.348;2023-05-23T15:32:12;4.60;;;3.57;;
1603;SDS011;795;49.296;11.348;2023-05-23T15:34:39;4.10;;;3.00;;
1603;SDS011;795;49.296;11.348;2023-05-23T15:37:06;3.40;;;3.20;;
1603;SDS011;795;49.296;11.348;2023-05-23T15:39:33;3.87;;;3.50;;
1603;SDS011;795;49.296;11.348;2023-05-23T15:42:00;4.40;;;3.30;;